DAL041 KLAX-YSSY
Flight info
| Callsign | DAL041 |
|---|---|
| Flight time | N/A |
| Altitude | 34000 |
| Route | SUMMR2 FICKY DCT WEDES B581 WINTY/N0500F360 B581 WOOBY/N0492F380 B581 NN A579 TEPEK/N0488F400 A579 UPSAD DCT ABARB DCT RIKNI N774 MARLN |
| Aircraft | A359/H-SDE2E3GHIJ3J4J5LM1ORWXY/LB1D1 |
Departure
| Time | 2026-05-04 05:56 |
|---|---|
| Airport | Los Angeles International Airport (KLAX) |
Arrival
| Time | N/A |
|---|---|
| Airport | Sydney Kingsford Smith International Airport (YSSY) |
| Time | Latitude | Longitude | Altitude | Speed | Heading |
|---|---|---|---|---|---|
| 2026-05-04 03:42 | 33.94155 | -118.40940 | 99 ft | 0 kts | 262° |
| 2026-05-04 05:40 | 33.94160 | -118.40884 | 98 ft | 4 kts | 279° |
| 2026-05-04 05:40 | 33.94150 | -118.40856 | 99 ft | 2 kts | 316° |
| 2026-05-04 05:40 | 33.94148 | -118.40853 | 99 ft | 4 kts | 322° |
| 2026-05-04 05:41 | 33.94128 | -118.40841 | 97 ft | 1 kts | 353° |
| 2026-05-04 05:41 | 33.94127 | -118.40841 | 97 ft | 1 kts | 353° |
| 2026-05-04 05:42 | 33.94117 | -118.40840 | 99 ft | 2 kts | 353° |
| 2026-05-04 05:43 | 33.94101 | -118.40838 | 99 ft | 2 kts | 353° |
| 2026-05-04 05:43 | 33.94085 | -118.40835 | 100 ft | 2 kts | 353° |
| 2026-05-04 05:43 | 33.94068 | -118.40833 | 99 ft | 2 kts | 353° |
| 2026-05-04 05:45 | 33.93964 | -118.40819 | 100 ft | 2 kts | 356° |
| 2026-05-04 05:45 | 33.93947 | -118.40818 | 98 ft | 2 kts | 356° |
| 2026-05-04 05:47 | 33.93876 | -118.40855 | 99 ft | 0 kts | 86° |
| 2026-05-04 05:47 | 33.93878 | -118.40820 | 99 ft | 10 kts | 86° |
| 2026-05-04 05:47 | 33.93837 | -118.40736 | 102 ft | 15 kts | 136° |
| 2026-05-04 05:48 | 33.93815 | -118.40623 | 101 ft | 14 kts | 85° |
| 2026-05-04 05:48 | 33.93826 | -118.40509 | 103 ft | 14 kts | 83° |
| 2026-05-04 05:48 | 33.93837 | -118.40398 | 104 ft | 13 kts | 83° |
| 2026-05-04 05:48 | 33.93848 | -118.40291 | 102 ft | 13 kts | 83° |
| 2026-05-04 05:49 | 33.93858 | -118.40184 | 102 ft | 13 kts | 83° |
| 2026-05-04 05:49 | 33.93870 | -118.40071 | 103 ft | 14 kts | 82° |
| 2026-05-04 05:49 | 33.93884 | -118.39946 | 106 ft | 16 kts | 83° |
| 2026-05-04 05:49 | 33.93898 | -118.39806 | 104 ft | 18 kts | 83° |
| 2026-05-04 05:51 | 33.94005 | -118.38762 | 100 ft | 17 kts | 83° |
| 2026-05-04 05:51 | 33.94018 | -118.38621 | 102 ft | 17 kts | 84° |
| 2026-05-04 05:52 | 33.94032 | -118.38485 | 102 ft | 16 kts | 83° |
| 2026-05-04 05:52 | 33.94046 | -118.38352 | 102 ft | 16 kts | 83° |
| 2026-05-04 05:52 | 33.94058 | -118.38236 | 102 ft | 14 kts | 82° |
| 2026-05-04 05:52 | 33.94072 | -118.38116 | 100 ft | 9 kts | 83° |
| 2026-05-04 05:53 | 33.94074 | -118.38096 | 100 ft | 9 kts | 82° |
| 2026-05-04 05:54 | 33.93979 | -118.38068 | 100 ft | 0 kts | 264° |
| 2026-05-04 05:55 | 33.93972 | -118.38143 | 100 ft | 28 kts | 264° |
| 2026-05-04 05:55 | 33.93922 | -118.38634 | 104 ft | 92 kts | 263° |
| 2026-05-04 05:55 | 33.93817 | -118.39659 | 104 ft | 153 kts | 262° |
| 2026-05-04 05:56 | 33.93672 | -118.41037 | 480 ft | 173 kts | 262° |
| 2026-05-04 05:56 | 33.93512 | -118.42473 | 1317 ft | 169 kts | 263° |
| 2026-05-04 05:56 | 33.93366 | -118.43943 | 1803 ft | 185 kts | 264° |
| 2026-05-04 05:56 | 33.93213 | -118.45544 | 1998 ft | 200 kts | 264° |
| 2026-05-04 05:57 | 33.93059 | -118.47262 | 2204 ft | 214 kts | 265° |
| 2026-05-04 05:57 | 33.92908 | -118.49118 | 2363 ft | 232 kts | 265° |
| 2026-05-04 05:57 | 33.92748 | -118.51104 | 2656 ft | 243 kts | 265° |
| 2026-05-04 05:57 | 33.92582 | -118.53149 | 3109 ft | 247 kts | 265° |
| 2026-05-04 05:58 | 33.92412 | -118.55198 | 3568 ft | 251 kts | 264° |
| 2026-05-04 05:58 | 33.92237 | -118.57300 | 3999 ft | 255 kts | 264° |
| 2026-05-04 05:58 | 33.92059 | -118.59438 | 4494 ft | 257 kts | 264° |
| 2026-05-04 05:58 | 33.91880 | -118.61600 | 4942 ft | 261 kts | 264° |
| 2026-05-04 05:59 | 33.91776 | -118.63787 | 5427 ft | 263 kts | 268° |
| 2026-05-04 05:59 | 33.91760 | -118.65979 | 6027 ft | 261 kts | 269° |
| 2026-05-04 05:59 | 33.91755 | -118.68165 | 6602 ft | 261 kts | 269° |
| 2026-05-04 05:59 | 33.91748 | -118.70378 | 7013 ft | 267 kts | 269° |
| 2026-05-04 06:00 | 33.91741 | -118.72622 | 7488 ft | 269 kts | 269° |
| 2026-05-04 06:00 | 33.91733 | -118.74851 | 8045 ft | 270 kts | 269° |
| 2026-05-04 06:00 | 33.91724 | -118.77119 | 8586 ft | 271 kts | 268° |
| 2026-05-04 06:00 | 33.91715 | -118.79392 | 9146 ft | 272 kts | 268° |
| 2026-05-04 06:01 | 33.91704 | -118.81681 | 9681 ft | 274 kts | 268° |
| 2026-05-04 06:01 | 33.91696 | -118.83987 | 10175 ft | 278 kts | 268° |
| 2026-05-04 06:03 | 33.91761 | -119.02872 | 11492 ft | 363 kts | 250° |
| 2026-05-04 06:03 | 33.90820 | -119.05722 | 11766 ft | 369 kts | 245° |
| 2026-05-04 06:05 | 33.83431 | -119.25869 | 14903 ft | 378 kts | 245° |
| 2026-05-04 06:05 | 33.81289 | -119.31583 | 15815 ft | 377 kts | 242° |
| 2026-05-04 06:05 | 33.79914 | -119.34256 | 16248 ft | 376 kts | 233° |
| 2026-05-04 06:06 | 33.78180 | -119.36607 | 16686 ft | 377 kts | 224° |
| 2026-05-04 06:06 | 33.76174 | -119.38643 | 17100 ft | 378 kts | 220° |
| 2026-05-04 06:06 | 33.74095 | -119.40589 | 17517 ft | 379 kts | 220° |
| 2026-05-04 06:06 | 33.72014 | -119.42521 | 17993 ft | 376 kts | 221° |
| 2026-05-04 06:07 | 33.69948 | -119.44445 | 18419 ft | 376 kts | 221° |
| 2026-05-04 06:07 | 33.67878 | -119.46379 | 18695 ft | 378 kts | 221° |
| 2026-05-04 06:07 | 33.65801 | -119.48322 | 18974 ft | 380 kts | 221° |
| 2026-05-04 06:07 | 33.63744 | -119.50246 | 19272 ft | 381 kts | 221° |
| 2026-05-04 06:08 | 33.61652 | -119.52202 | 19595 ft | 382 kts | 221° |
| 2026-05-04 06:08 | 33.59552 | -119.54165 | 19932 ft | 383 kts | 221° |
| 2026-05-04 06:08 | 33.57443 | -119.56136 | 20212 ft | 386 kts | 221° |
| 2026-05-04 06:08 | 33.55324 | -119.58114 | 20547 ft | 387 kts | 221° |
| 2026-05-04 06:09 | 33.53198 | -119.60098 | 20899 ft | 387 kts | 221° |
| 2026-05-04 06:09 | 33.51068 | -119.62084 | 21239 ft | 388 kts | 221° |
| 2026-05-04 06:11 | 33.36024 | -119.76078 | 23591 ft | 396 kts | 221° |
| 2026-05-04 06:11 | 33.33842 | -119.78104 | 23878 ft | 397 kts | 221° |
| 2026-05-04 06:13 | 33.18552 | -119.92253 | 26105 ft | 400 kts | 222° |
| 2026-05-04 06:14 | 33.05337 | -120.04430 | 27829 ft | 403 kts | 222° |
| 2026-05-04 06:14 | 33.03118 | -120.06471 | 28077 ft | 404 kts | 222° |
| 2026-05-04 06:15 | 33.00890 | -120.08518 | 28321 ft | 405 kts | 223° |
| 2026-05-04 06:15 | 32.98660 | -120.10566 | 28558 ft | 405 kts | 223° |
| 2026-05-04 06:15 | 32.96425 | -120.12617 | 28840 ft | 405 kts | 223° |
| 2026-05-04 06:15 | 32.94200 | -120.14657 | 29221 ft | 402 kts | 223° |
| 2026-05-04 06:16 | 32.91991 | -120.16679 | 29626 ft | 399 kts | 223° |
| 2026-05-04 06:16 | 32.89796 | -120.18688 | 29991 ft | 397 kts | 223° |
| 2026-05-04 06:16 | 32.87612 | -120.20687 | 30288 ft | 395 kts | 223° |
| 2026-05-04 06:16 | 32.85464 | -120.22652 | 30505 ft | 395 kts | 223° |
| 2026-05-04 06:17 | 32.83289 | -120.24641 | 30705 ft | 394 kts | 223° |
| 2026-05-04 06:17 | 32.81114 | -120.26629 | 30859 ft | 394 kts | 222° |
| 2026-05-04 06:17 | 32.78935 | -120.28619 | 30975 ft | 396 kts | 222° |
| 2026-05-04 06:17 | 32.76753 | -120.30610 | 31174 ft | 395 kts | 222° |
| 2026-05-04 06:18 | 32.74572 | -120.32598 | 31406 ft | 394 kts | 222° |
| 2026-05-04 06:18 | 32.72400 | -120.34576 | 31623 ft | 393 kts | 222° |
| 2026-05-04 06:18 | 32.70237 | -120.36546 | 31846 ft | 392 kts | 222° |
| 2026-05-04 06:20 | 32.55281 | -120.50142 | 33273 ft | 385 kts | 222° |
| 2026-05-04 06:20 | 32.53159 | -120.52064 | 33436 ft | 384 kts | 222° |
| 2026-05-04 06:21 | 32.44676 | -120.59745 | 33880 ft | 385 kts | 222° |
| 2026-05-04 06:21 | 32.42551 | -120.61666 | 34047 ft | 384 kts | 222° |
| 2026-05-04 06:22 | 32.40424 | -120.63588 | 34083 ft | 386 kts | 222° |
| 2026-05-04 06:25 | 32.10256 | -120.90728 | 34095 ft | 392 kts | 222° |
| 2026-05-04 06:26 | 32.05909 | -120.94620 | 34091 ft | 392 kts | 222° |
| 2026-05-04 06:26 | 32.01564 | -120.98505 | 34091 ft | 392 kts | 222° |
| 2026-05-04 06:27 | 31.90729 | -121.08172 | 34094 ft | 392 kts | 222° |
| 2026-05-04 06:28 | 31.86383 | -121.12041 | 34095 ft | 392 kts | 222° |
| 2026-05-04 06:28 | 31.82033 | -121.15910 | 34096 ft | 392 kts | 222° |
| 2026-05-04 06:29 | 31.77683 | -121.19773 | 34097 ft | 392 kts | 221° |
| 2026-05-04 06:29 | 31.73364 | -121.23605 | 34097 ft | 392 kts | 221° |
| 2026-05-04 06:30 | 31.69012 | -121.27461 | 34099 ft | 391 kts | 221° |
| 2026-05-04 06:30 | 31.64667 | -121.31306 | 34099 ft | 391 kts | 221° |
| 2026-05-04 06:31 | 31.60316 | -121.35153 | 34099 ft | 391 kts | 221° |
| 2026-05-04 06:31 | 31.56245 | -121.39268 | 34092 ft | 387 kts | 230° |
| 2026-05-04 06:33 | 31.44952 | -121.60646 | 34101 ft | 387 kts | 239° |
| 2026-05-04 06:34 | 31.42217 | -121.66071 | 34100 ft | 387 kts | 239° |
| 2026-05-04 06:34 | 31.39472 | -121.71493 | 34099 ft | 387 kts | 239° |
| 2026-05-04 06:36 | 31.28493 | -121.93118 | 34102 ft | 387 kts | 238° |
| 2026-05-04 06:37 | 31.25736 | -121.98530 | 34105 ft | 387 kts | 238° |
| 2026-05-04 06:37 | 31.22978 | -122.03936 | 34104 ft | 387 kts | 238° |
| 2026-05-04 06:38 | 31.20239 | -122.09298 | 34107 ft | 387 kts | 238° |
| 2026-05-04 06:40 | 31.09218 | -122.30796 | 34105 ft | 386 kts | 238° |
| 2026-05-04 06:40 | 31.06454 | -122.36169 | 34103 ft | 387 kts | 238° |
| 2026-05-04 06:41 | 31.03670 | -122.41574 | 34109 ft | 389 kts | 238° |
| 2026-05-04 06:41 | 31.00885 | -122.46972 | 34110 ft | 388 kts | 238° |
| 2026-05-04 06:42 | 30.98100 | -122.52365 | 34105 ft | 388 kts | 238° |
| 2026-05-04 06:44 | 30.86953 | -122.73871 | 34110 ft | 388 kts | 238° |
| 2026-05-04 06:44 | 30.84175 | -122.79210 | 34111 ft | 388 kts | 238° |
| 2026-05-04 06:45 | 30.81377 | -122.84583 | 34112 ft | 388 kts | 238° |
| 2026-05-04 06:45 | 30.78576 | -122.89953 | 34110 ft | 388 kts | 238° |
| 2026-05-04 06:46 | 30.75775 | -122.95318 | 34111 ft | 388 kts | 237° |
| 2026-05-04 06:46 | 30.72987 | -123.00648 | 34115 ft | 388 kts | 237° |
| 2026-05-04 06:48 | 30.61722 | -123.22010 | 34113 ft | 388 kts | 237° |
| 2026-05-04 06:50 | 30.50314 | -123.43320 | 34114 ft | 389 kts | 237° |
| 2026-05-04 06:51 | 30.47473 | -123.48614 | 34113 ft | 389 kts | 237° |
| 2026-05-04 06:51 | 30.44611 | -123.53942 | 34113 ft | 389 kts | 237° |
| 2026-05-04 06:52 | 30.41746 | -123.59268 | 34115 ft | 389 kts | 237° |
| 2026-05-04 06:52 | 30.38877 | -123.64594 | 34117 ft | 389 kts | 237° |
| 2026-05-04 06:53 | 30.36027 | -123.69878 | 34117 ft | 390 kts | 237° |
| 2026-05-04 06:53 | 30.33152 | -123.75201 | 34113 ft | 390 kts | 237° |
| 2026-05-04 06:54 | 30.30275 | -123.80519 | 34116 ft | 390 kts | 237° |
| 2026-05-04 06:54 | 30.27399 | -123.85831 | 34119 ft | 390 kts | 237° |
| 2026-05-04 06:55 | 30.24537 | -123.91109 | 34117 ft | 390 kts | 237° |
| 2026-05-04 06:55 | 30.21655 | -123.96416 | 34117 ft | 390 kts | 236° |
| 2026-05-04 06:57 | 30.10092 | -124.17642 | 34119 ft | 391 kts | 236° |
| 2026-05-04 06:58 | 30.07189 | -124.22954 | 34130 ft | 391 kts | 236° |
| 2026-05-04 06:58 | 30.04279 | -124.28273 | 34085 ft | 392 kts | 236° |
| 2026-05-04 06:59 | 30.01384 | -124.33557 | 34120 ft | 393 kts | 236° |
| 2026-05-04 06:59 | 29.98460 | -124.38881 | 34121 ft | 393 kts | 236° |
| 2026-05-04 07:01 | 29.86759 | -124.60132 | 34127 ft | 394 kts | 236° |
| 2026-05-04 07:02 | 29.83817 | -124.65458 | 34126 ft | 394 kts | 236° |
| 2026-05-04 07:02 | 29.80874 | -124.70778 | 34127 ft | 394 kts | 236° |
| 2026-05-04 07:03 | 29.77946 | -124.76066 | 34129 ft | 394 kts | 236° |
| 2026-05-04 07:03 | 29.74993 | -124.81391 | 34113 ft | 395 kts | 236° |
| 2026-05-04 07:04 | 29.72034 | -124.86718 | 34132 ft | 395 kts | 236° |
| 2026-05-04 07:04 | 29.69073 | -124.92043 | 34133 ft | 395 kts | 236° |
| 2026-05-04 07:05 | 29.66131 | -124.97327 | 34133 ft | 395 kts | 235° |
| 2026-05-04 07:05 | 29.63169 | -125.02642 | 34127 ft | 395 kts | 235° |
| 2026-05-04 07:06 | 29.58713 | -125.10622 | 34139 ft | 395 kts | 235° |
| 2026-05-04 07:07 | 29.56245 | -125.15035 | 34128 ft | 395 kts | 235° |
| 2026-05-04 07:09 | 29.44341 | -125.36257 | 34133 ft | 397 kts | 235° |
| 2026-05-04 07:09 | 29.40861 | -125.42436 | 34133 ft | 397 kts | 235° |
| 2026-05-04 07:10 | 29.37866 | -125.47749 | 34132 ft | 397 kts | 235° |
| 2026-05-04 07:12 | 29.26384 | -125.68057 | 34137 ft | 396 kts | 234° |
| 2026-05-04 07:12 | 29.23404 | -125.73312 | 34134 ft | 396 kts | 234° |
| 2026-05-04 07:13 | 29.20403 | -125.78597 | 34135 ft | 396 kts | 234° |
| 2026-05-04 07:13 | 29.17406 | -125.83868 | 34136 ft | 395 kts | 234° |
| 2026-05-04 07:14 | 29.09927 | -125.96991 | 34136 ft | 395 kts | 234° |
| 2026-05-04 07:15 | 29.06923 | -126.02250 | 34137 ft | 395 kts | 234° |
| 2026-05-04 07:15 | 29.03921 | -126.07501 | 34138 ft | 395 kts | 234° |
| 2026-05-04 07:16 | 29.00916 | -126.12748 | 34130 ft | 395 kts | 234° |
| 2026-05-04 07:16 | 28.97885 | -126.18032 | 34140 ft | 399 kts | 234° |
| 2026-05-04 07:17 | 28.94867 | -126.23291 | 34137 ft | 398 kts | 234° |
| 2026-05-04 07:17 | 28.91834 | -126.28570 | 34140 ft | 397 kts | 234° |
| 2026-05-04 07:18 | 28.88802 | -126.33838 | 34138 ft | 397 kts | 234° |
| 2026-05-04 07:18 | 28.85771 | -126.39097 | 34137 ft | 397 kts | 234° |
| 2026-05-04 07:19 | 28.82759 | -126.44318 | 34137 ft | 397 kts | 234° |
| 2026-05-04 07:19 | 28.79725 | -126.49569 | 34137 ft | 397 kts | 234° |
| 2026-05-04 07:20 | 28.76695 | -126.54809 | 34137 ft | 395 kts | 234° |
| 2026-05-04 07:20 | 28.73677 | -126.60022 | 34141 ft | 394 kts | 234° |
| 2026-05-04 07:22 | 28.61619 | -126.80778 | 34143 ft | 392 kts | 234° |
| 2026-05-04 07:23 | 28.58611 | -126.85942 | 34140 ft | 391 kts | 234° |
| 2026-05-04 07:23 | 28.55622 | -126.91066 | 34140 ft | 391 kts | 234° |
| 2026-05-04 07:24 | 28.52610 | -126.96221 | 34143 ft | 391 kts | 234° |
| 2026-05-04 07:24 | 28.49596 | -127.01374 | 34132 ft | 391 kts | 233° |
| 2026-05-04 07:26 | 28.37430 | -127.22115 | 34143 ft | 395 kts | 233° |
| 2026-05-04 07:27 | 28.34380 | -127.27299 | 34146 ft | 394 kts | 233° |
| 2026-05-04 07:27 | 28.31338 | -127.32464 | 34145 ft | 393 kts | 233° |
| 2026-05-04 07:28 | 28.28318 | -127.37583 | 34147 ft | 393 kts | 233° |
| 2026-05-04 07:28 | 28.25275 | -127.42735 | 34145 ft | 393 kts | 233° |
| 2026-05-04 07:29 | 28.22229 | -127.47888 | 34152 ft | 393 kts | 233° |
| 2026-05-04 07:29 | 28.19187 | -127.53028 | 34145 ft | 392 kts | 233° |
| 2026-05-04 07:30 | 28.16167 | -127.58124 | 34148 ft | 392 kts | 233° |
| 2026-05-04 07:30 | 28.13125 | -127.63250 | 34148 ft | 392 kts | 233° |
| 2026-05-04 07:31 | 28.10083 | -127.68370 | 34146 ft | 392 kts | 233° |
| 2026-05-04 07:33 | 27.97932 | -127.88760 | 34143 ft | 392 kts | 233° |
| 2026-05-04 07:33 | 27.94870 | -127.93882 | 34146 ft | 393 kts | 233° |
| 2026-05-04 07:34 | 27.91807 | -127.99003 | 34146 ft | 393 kts | 233° |
| 2026-05-04 07:34 | 27.88761 | -128.04090 | 34146 ft | 393 kts | 233° |
| 2026-05-04 07:35 | 27.85692 | -128.09208 | 34146 ft | 393 kts | 233° |
| 2026-05-04 07:35 | 27.82620 | -128.14324 | 34151 ft | 393 kts | 233° |
| 2026-05-04 07:36 | 27.79548 | -128.19434 | 34155 ft | 393 kts | 233° |
| 2026-05-04 07:38 | 27.67207 | -128.39904 | 34151 ft | 395 kts | 233° |
| 2026-05-04 07:38 | 27.64111 | -128.45024 | 34151 ft | 395 kts | 233° |
| 2026-05-04 07:39 | 27.61030 | -128.50113 | 34151 ft | 395 kts | 233° |
| 2026-05-04 07:39 | 27.57930 | -128.55228 | 34151 ft | 395 kts | 233° |
| 2026-05-04 07:40 | 27.54825 | -128.60345 | 34151 ft | 395 kts | 233° |
| 2026-05-04 07:40 | 27.51738 | -128.65425 | 34159 ft | 395 kts | 233° |
| 2026-05-04 07:41 | 27.48625 | -128.70544 | 34151 ft | 397 kts | 233° |
| 2026-05-04 07:41 | 27.45494 | -128.75687 | 34151 ft | 398 kts | 233° |
| 2026-05-04 07:42 | 27.42366 | -128.80818 | 34157 ft | 397 kts | 233° |
| 2026-05-04 07:42 | 27.39236 | -128.85945 | 34156 ft | 397 kts | 233° |
| 2026-05-04 07:43 | 27.36124 | -128.91038 | 34155 ft | 398 kts | 233° |
| 2026-05-04 07:43 | 27.32978 | -128.96179 | 34153 ft | 400 kts | 233° |
| 2026-05-04 07:44 | 27.29822 | -129.01332 | 34155 ft | 400 kts | 233° |
| 2026-05-04 07:44 | 27.26669 | -129.06476 | 34154 ft | 400 kts | 233° |
| 2026-05-04 07:45 | 27.23529 | -129.11590 | 34153 ft | 400 kts | 233° |
| 2026-05-04 07:45 | 27.20365 | -129.16736 | 34157 ft | 401 kts | 234° |
| 2026-05-04 07:46 | 27.17188 | -129.21899 | 34157 ft | 402 kts | 234° |
| 2026-05-04 07:46 | 27.14008 | -129.27061 | 34157 ft | 402 kts | 234° |
| 2026-05-04 07:47 | 27.10828 | -129.32218 | 34156 ft | 402 kts | 234° |
| 2026-05-04 07:49 | 26.98093 | -129.52805 | 34157 ft | 402 kts | 234° |
| 2026-05-04 07:49 | 26.94921 | -129.57918 | 34160 ft | 402 kts | 234° |
| 2026-05-04 07:50 | 26.91734 | -129.63050 | 34159 ft | 400 kts | 234° |
| 2026-05-04 07:50 | 26.88556 | -129.68162 | 34162 ft | 400 kts | 234° |
| 2026-05-04 07:51 | 26.85377 | -129.73269 | 34159 ft | 400 kts | 234° |
| 2026-05-04 07:51 | 26.82218 | -129.78338 | 34165 ft | 400 kts | 234° |
| 2026-05-04 07:52 | 26.79035 | -129.83439 | 34162 ft | 400 kts | 234° |
| 2026-05-04 07:52 | 26.75852 | -129.88536 | 34162 ft | 399 kts | 234° |
| 2026-05-04 07:54 | 26.63113 | -130.08874 | 34162 ft | 401 kts | 234° |
| 2026-05-04 07:55 | 26.59904 | -130.13983 | 34162 ft | 402 kts | 234° |
| 2026-05-04 07:55 | 26.56691 | -130.19092 | 34162 ft | 402 kts | 234° |
| 2026-05-04 07:56 | 26.53498 | -130.24164 | 34165 ft | 402 kts | 234° |
| 2026-05-04 07:56 | 26.50280 | -130.29269 | 34165 ft | 403 kts | 234° |
| 2026-05-04 07:57 | 26.47050 | -130.34389 | 34133 ft | 403 kts | 234° |
| 2026-05-04 07:57 | 26.43820 | -130.39502 | 34164 ft | 403 kts | 234° |
| 2026-05-04 07:58 | 26.40608 | -130.44580 | 34164 ft | 403 kts | 234° |
| 2026-05-04 07:58 | 26.37374 | -130.49689 | 34166 ft | 403 kts | 234° |
| 2026-05-04 07:59 | 26.34137 | -130.54796 | 34165 ft | 403 kts | 234° |
| 2026-05-04 07:59 | 26.30895 | -130.59905 | 34165 ft | 404 kts | 234° |
| 2026-05-04 08:00 | 26.27675 | -130.64975 | 34167 ft | 403 kts | 234° |
| 2026-05-04 08:02 | 26.14715 | -130.85320 | 34168 ft | 403 kts | 234° |
| 2026-05-04 08:02 | 26.11464 | -130.90411 | 34165 ft | 404 kts | 234° |
| 2026-05-04 08:03 | 26.08207 | -130.95503 | 34165 ft | 404 kts | 233° |
| 2026-05-04 08:03 | 26.04952 | -131.00589 | 34165 ft | 404 kts | 233° |
| 2026-05-04 08:04 | 26.01695 | -131.05670 | 34165 ft | 403 kts | 233° |
| 2026-05-04 08:04 | 25.98459 | -131.10713 | 34165 ft | 403 kts | 233° |
| 2026-05-04 08:05 | 25.95198 | -131.15792 | 34163 ft | 404 kts | 233° |
| 2026-05-04 08:05 | 25.91937 | -131.20863 | 34164 ft | 403 kts | 233° |
| 2026-05-04 08:06 | 25.88694 | -131.25902 | 34162 ft | 404 kts | 233° |
| 2026-05-04 08:06 | 25.85428 | -131.30969 | 34165 ft | 404 kts | 233° |
| 2026-05-04 08:08 | 25.72351 | -131.51209 | 34162 ft | 404 kts | 233° |
| 2026-05-04 08:11 | 25.57576 | -131.73970 | 34166 ft | 405 kts | 233° |
| 2026-05-04 08:11 | 25.52625 | -131.81572 | 34163 ft | 406 kts | 233° |
| 2026-05-04 08:12 | 25.49314 | -131.86649 | 34162 ft | 407 kts | 233° |
| 2026-05-04 08:12 | 25.46022 | -131.91692 | 34155 ft | 407 kts | 233° |
| 2026-05-04 08:13 | 25.42717 | -131.96750 | 34162 ft | 405 kts | 233° |
| 2026-05-04 08:13 | 25.39415 | -132.01797 | 34165 ft | 406 kts | 233° |
| 2026-05-04 08:14 | 25.36099 | -132.06861 | 34162 ft | 407 kts | 233° |
| 2026-05-04 08:16 | 25.22803 | -132.27114 | 34164 ft | 410 kts | 234° |
| 2026-05-04 08:16 | 25.19449 | -132.32213 | 34165 ft | 410 kts | 233° |
| 2026-05-04 08:17 | 25.16116 | -132.37273 | 34162 ft | 410 kts | 234° |
| 2026-05-04 08:17 | 25.12758 | -132.42365 | 34157 ft | 411 kts | 234° |
| 2026-05-04 08:19 | 24.99246 | -132.62806 | 34160 ft | 414 kts | 234° |
| 2026-05-04 08:20 | 24.95842 | -132.67939 | 34156 ft | 415 kts | 234° |
| 2026-05-04 08:20 | 24.92448 | -132.73054 | 34165 ft | 412 kts | 234° |
| 2026-05-04 08:21 | 24.89084 | -132.78119 | 34165 ft | 412 kts | 234° |
| 2026-05-04 08:21 | 24.85695 | -132.83215 | 34162 ft | 412 kts | 234° |
| 2026-05-04 08:22 | 24.82304 | -132.88310 | 34162 ft | 412 kts | 234° |
| 2026-05-04 08:24 | 24.68722 | -133.08657 | 34162 ft | 415 kts | 234° |
| 2026-05-04 08:24 | 24.65295 | -133.13780 | 34163 ft | 416 kts | 234° |
| 2026-05-04 08:25 | 24.61889 | -133.18863 | 34162 ft | 416 kts | 234° |
| 2026-05-04 08:25 | 24.58458 | -133.23979 | 34158 ft | 416 kts | 234° |
| 2026-05-04 08:27 | 24.44704 | -133.44434 | 34165 ft | 415 kts | 235° |
| 2026-05-04 08:28 | 24.41257 | -133.49547 | 34162 ft | 417 kts | 235° |
| 2026-05-04 08:28 | 24.37803 | -133.54666 | 34162 ft | 418 kts | 235° |
| 2026-05-04 08:29 | 24.34341 | -133.59791 | 34162 ft | 418 kts | 235° |
| 2026-05-04 08:31 | 24.20439 | -133.80315 | 34160 ft | 421 kts | 235° |
| 2026-05-04 08:33 | 24.06439 | -134.00899 | 34160 ft | 423 kts | 235° |
| 2026-05-04 08:35 | 23.92369 | -134.21500 | 34157 ft | 421 kts | 236° |
| 2026-05-04 08:35 | 23.88853 | -134.26636 | 34157 ft | 424 kts | 236° |
| 2026-05-04 08:37 | 23.76473 | -134.44670 | 34157 ft | 426 kts | 236° |
| 2026-05-04 08:38 | 23.72933 | -134.49815 | 34155 ft | 427 kts | 236° |
| 2026-05-04 08:38 | 23.69369 | -134.54994 | 34153 ft | 427 kts | 236° |
| 2026-05-04 08:40 | 23.55044 | -134.75744 | 34154 ft | 430 kts | 236° |
| 2026-05-04 08:41 | 23.51441 | -134.80948 | 34101 ft | 430 kts | 237° |
| 2026-05-04 08:41 | 23.47849 | -134.86131 | 34153 ft | 426 kts | 237° |
| 2026-05-04 08:42 | 23.44279 | -134.91277 | 34157 ft | 425 kts | 237° |
| 2026-05-04 08:42 | 23.40737 | -134.96380 | 34153 ft | 426 kts | 237° |
| 2026-05-04 08:43 | 23.37165 | -135.01520 | 34147 ft | 426 kts | 237° |
| 2026-05-04 08:43 | 23.33579 | -135.06677 | 34153 ft | 428 kts | 237° |
| 2026-05-04 08:44 | 23.29984 | -135.11838 | 34152 ft | 428 kts | 237° |
| 2026-05-04 08:46 | 23.15534 | -135.32537 | 34150 ft | 433 kts | 237° |
| 2026-05-04 08:46 | 23.11913 | -135.37708 | 34112 ft | 433 kts | 237° |
| 2026-05-04 08:47 | 23.08274 | -135.42896 | 34152 ft | 432 kts | 238° |
| 2026-05-04 08:47 | 23.04627 | -135.48100 | 34151 ft | 433 kts | 238° |
| 2026-05-04 08:48 | 23.00978 | -135.53300 | 34151 ft | 433 kts | 238° |
| 2026-05-04 08:48 | 22.97324 | -135.58499 | 34161 ft | 433 kts | 238° |
| 2026-05-04 08:49 | 22.93683 | -135.63673 | 34150 ft | 434 kts | 238° |
| 2026-05-04 08:50 | 22.80870 | -135.81848 | 34127 ft | 436 kts | 238° |
| 2026-05-04 08:51 | 22.77179 | -135.87073 | 34153 ft | 436 kts | 238° |
| 2026-05-04 08:51 | 22.73488 | -135.92290 | 34148 ft | 436 kts | 238° |
| 2026-05-04 08:52 | 22.69796 | -135.97503 | 34143 ft | 436 kts | 238° |
| 2026-05-04 08:52 | 22.66092 | -136.02729 | 34144 ft | 438 kts | 238° |
| 2026-05-04 08:54 | 22.51258 | -136.23609 | 34150 ft | 441 kts | 238° |
| 2026-05-04 08:55 | 22.47518 | -136.28862 | 34149 ft | 441 kts | 237° |
| 2026-05-04 08:55 | 22.43803 | -136.34070 | 34152 ft | 440 kts | 237° |
| 2026-05-04 09:01 | 22.04227 | -136.89261 | 34142 ft | 443 kts | 237° |
| 2026-05-04 09:01 | 22.00446 | -136.94505 | 34120 ft | 443 kts | 237° |
| 2026-05-04 09:02 | 21.96680 | -136.99723 | 34141 ft | 444 kts | 237° |
| 2026-05-04 09:02 | 21.92881 | -137.04981 | 34140 ft | 445 kts | 237° |
| 2026-05-04 09:03 | 21.89076 | -137.10242 | 34135 ft | 445 kts | 237° |
| 2026-05-04 09:03 | 21.85272 | -137.15496 | 34135 ft | 445 kts | 237° |
| 2026-05-04 09:04 | 21.81463 | -137.20752 | 34133 ft | 445 kts | 237° |
| 2026-05-04 09:04 | 21.77674 | -137.25977 | 34129 ft | 446 kts | 236° |
| 2026-05-04 09:05 | 21.73852 | -137.31241 | 34135 ft | 446 kts | 236° |
| 2026-05-04 09:05 | 21.70033 | -137.36496 | 34129 ft | 446 kts | 236° |
| 2026-05-04 09:06 | 21.66206 | -137.41756 | 34134 ft | 447 kts | 236° |
| 2026-05-04 09:08 | 21.50852 | -137.62813 | 34119 ft | 449 kts | 236° |
| 2026-05-04 09:08 | 21.47018 | -137.68058 | 34129 ft | 449 kts | 236° |
| 2026-05-04 09:09 | 21.43161 | -137.73330 | 34127 ft | 449 kts | 236° |
| 2026-05-04 09:09 | 21.39305 | -137.78595 | 34127 ft | 449 kts | 236° |
| 2026-05-04 09:10 | 21.35446 | -137.83861 | 34128 ft | 450 kts | 236° |
| 2026-05-04 09:10 | 21.31600 | -137.89103 | 34126 ft | 450 kts | 236° |
| 2026-05-04 09:11 | 21.27731 | -137.94369 | 34127 ft | 449 kts | 236° |
| 2026-05-04 09:11 | 21.23868 | -137.99624 | 34127 ft | 449 kts | 236° |
| 2026-05-04 09:12 | 21.19997 | -138.04886 | 34127 ft | 450 kts | 236° |
| 2026-05-04 09:14 | 21.04511 | -138.25882 | 34129 ft | 450 kts | 236° |
| 2026-05-04 09:14 | 21.00623 | -138.31142 | 34126 ft | 451 kts | 236° |
| 2026-05-04 09:15 | 20.96758 | -138.36364 | 34127 ft | 451 kts | 236° |
| 2026-05-04 09:15 | 20.92872 | -138.41610 | 34125 ft | 449 kts | 236° |
| 2026-05-04 09:17 | 20.75358 | -138.65196 | 34119 ft | 450 kts | 236° |
| 2026-05-04 09:18 | 20.71460 | -138.70434 | 34120 ft | 451 kts | 236° |
| 2026-05-04 09:18 | 20.67547 | -138.75686 | 34118 ft | 452 kts | 236° |
| 2026-05-04 09:19 | 20.63658 | -138.80900 | 34117 ft | 452 kts | 236° |
| 2026-05-04 09:19 | 20.59743 | -138.86143 | 34116 ft | 451 kts | 236° |
| 2026-05-04 09:20 | 20.55836 | -138.91371 | 34119 ft | 450 kts | 236° |
| 2026-05-04 09:20 | 20.51931 | -138.96592 | 34118 ft | 450 kts | 236° |
| 2026-05-04 09:21 | 20.48048 | -139.01781 | 34116 ft | 450 kts | 236° |
| 2026-05-04 09:21 | 20.44137 | -139.07000 | 34109 ft | 450 kts | 236° |
| 2026-05-04 09:22 | 20.40226 | -139.12216 | 34126 ft | 451 kts | 235° |
| 2026-05-04 09:22 | 20.36308 | -139.17437 | 34102 ft | 451 kts | 235° |
| 2026-05-04 09:23 | 20.32412 | -139.22622 | 34123 ft | 451 kts | 235° |
| 2026-05-04 09:23 | 20.28486 | -139.27843 | 34102 ft | 451 kts | 235° |
| 2026-05-04 09:25 | 20.12834 | -139.48611 | 34106 ft | 450 kts | 235° |
| 2026-05-04 09:26 | 20.08914 | -139.53797 | 34112 ft | 450 kts | 235° |
| 2026-05-04 09:26 | 20.04989 | -139.58990 | 34094 ft | 448 kts | 234° |
| 2026-05-04 09:27 | 20.01142 | -139.64070 | 34105 ft | 441 kts | 234° |
| 2026-05-04 09:27 | 19.97300 | -139.69143 | 34102 ft | 440 kts | 234° |
| 2026-05-04 09:28 | 19.93455 | -139.74217 | 34101 ft | 441 kts | 234° |
| 2026-05-04 09:28 | 19.89598 | -139.79303 | 34102 ft | 445 kts | 234° |
| 2026-05-04 09:29 | 19.85703 | -139.84434 | 34102 ft | 447 kts | 234° |
| 2026-05-04 09:29 | 19.81827 | -139.89531 | 34101 ft | 447 kts | 234° |
| 2026-05-04 09:30 | 19.77921 | -139.94664 | 34100 ft | 446 kts | 234° |
| 2026-05-04 09:30 | 19.74018 | -139.99790 | 34101 ft | 448 kts | 234° |
| 2026-05-04 09:31 | 19.70080 | -140.04961 | 34091 ft | 451 kts | 234° |
| 2026-05-04 09:31 | 19.66178 | -140.10074 | 34091 ft | 444 kts | 234° |
| 2026-05-04 09:32 | 19.62320 | -140.15123 | 34095 ft | 439 kts | 234° |
| 2026-05-04 09:34 | 19.46901 | -140.35284 | 34093 ft | 439 kts | 234° |
| 2026-05-04 09:34 | 19.43074 | -140.40273 | 34093 ft | 435 kts | 234° |
| 2026-05-04 09:35 | 19.39258 | -140.45251 | 34092 ft | 436 kts | 234° |
| 2026-05-04 09:35 | 19.35423 | -140.50248 | 34089 ft | 438 kts | 234° |
| 2026-05-04 09:37 | 19.20160 | -140.70084 | 34089 ft | 434 kts | 235° |
| 2026-05-04 09:38 | 19.16372 | -140.74999 | 34089 ft | 434 kts | 235° |
| 2026-05-04 09:38 | 19.12557 | -140.79942 | 34086 ft | 434 kts | 235° |
| 2026-05-04 09:39 | 19.08737 | -140.84886 | 34076 ft | 433 kts | 235° |
| 2026-05-04 09:39 | 19.04936 | -140.89803 | 34095 ft | 431 kts | 235° |
| 2026-05-04 09:40 | 19.01164 | -140.94682 | 34086 ft | 432 kts | 235° |
| 2026-05-04 09:40 | 18.97362 | -140.99594 | 34081 ft | 432 kts | 235° |
| 2026-05-04 09:42 | 18.82194 | -141.19149 | 34080 ft | 429 kts | 236° |
| 2026-05-04 09:43 | 18.78406 | -141.24024 | 34090 ft | 429 kts | 236° |
| 2026-05-04 09:43 | 18.74617 | -141.28897 | 34083 ft | 429 kts | 236° |
| 2026-05-04 09:44 | 18.70830 | -141.33762 | 34076 ft | 429 kts | 236° |
| 2026-05-04 09:46 | 18.55658 | -141.53217 | 34078 ft | 430 kts | 235° |
| 2026-05-04 09:46 | 18.51882 | -141.58049 | 34078 ft | 430 kts | 235° |
| 2026-05-04 09:47 | 18.48076 | -141.62917 | 34067 ft | 430 kts | 235° |
| 2026-05-04 09:49 | 18.32889 | -141.82300 | 34076 ft | 430 kts | 235° |
| 2026-05-04 09:51 | 18.19588 | -141.99229 | 34067 ft | 430 kts | 235° |
| 2026-05-04 09:51 | 18.16417 | -142.03258 | 34071 ft | 430 kts | 235° |
| 2026-05-04 09:52 | 18.12600 | -142.08105 | 34069 ft | 430 kts | 235° |
| 2026-05-04 09:52 | 18.08782 | -142.12949 | 34070 ft | 430 kts | 235° |
| 2026-05-04 09:53 | 18.04964 | -142.17789 | 34067 ft | 431 kts | 235° |
| 2026-05-04 09:53 | 18.01139 | -142.22635 | 34068 ft | 431 kts | 235° |
| 2026-05-04 09:54 | 17.97341 | -142.27443 | 34063 ft | 431 kts | 235° |
| 2026-05-04 09:54 | 17.93517 | -142.32280 | 34063 ft | 430 kts | 236° |
| 2026-05-04 09:55 | 17.89694 | -142.37112 | 34063 ft | 430 kts | 236° |
| 2026-05-04 09:55 | 17.85871 | -142.41941 | 34061 ft | 430 kts | 236° |
| 2026-05-04 09:56 | 17.82075 | -142.46734 | 34061 ft | 430 kts | 236° |
| 2026-05-04 09:56 | 17.78253 | -142.51554 | 34060 ft | 430 kts | 235° |
| 2026-05-04 09:57 | 17.74431 | -142.56371 | 34060 ft | 429 kts | 235° |
| 2026-05-04 09:57 | 17.70614 | -142.61178 | 34061 ft | 429 kts | 235° |
| 2026-05-04 09:58 | 17.66823 | -142.65948 | 34059 ft | 429 kts | 235° |
| 2026-05-04 09:58 | 17.63006 | -142.70749 | 34058 ft | 429 kts | 235° |
| 2026-05-04 10:00 | 17.47734 | -142.89920 | 34061 ft | 429 kts | 235° |
| 2026-05-04 10:04 | 17.20899 | -143.23474 | 34033 ft | 430 kts | 235° |
| 2026-05-04 10:04 | 17.17080 | -143.28237 | 34054 ft | 430 kts | 234° |
| 2026-05-04 10:05 | 17.13231 | -143.33031 | 34050 ft | 430 kts | 234° |
| 2026-05-04 10:05 | 17.09383 | -143.37822 | 34050 ft | 430 kts | 234° |
| 2026-05-04 10:06 | 17.05531 | -143.42615 | 34048 ft | 430 kts | 234° |
| 2026-05-04 10:06 | 17.01704 | -143.47372 | 34045 ft | 430 kts | 234° |
| 2026-05-04 10:08 | 16.88212 | -143.64121 | 34044 ft | 432 kts | 234° |
| 2026-05-04 10:08 | 16.84341 | -143.68918 | 34044 ft | 432 kts | 234° |
| 2026-05-04 10:09 | 16.80467 | -143.73716 | 34048 ft | 432 kts | 234° |
| 2026-05-04 10:09 | 16.76591 | -143.78513 | 34045 ft | 432 kts | 234° |
| 2026-05-04 10:10 | 16.72713 | -143.83311 | 34042 ft | 433 kts | 234° |
| 2026-05-04 10:10 | 16.68854 | -143.88080 | 34043 ft | 433 kts | 234° |
| 2026-05-04 10:11 | 16.64963 | -143.92885 | 34040 ft | 433 kts | 234° |
| 2026-05-04 10:11 | 16.61071 | -143.97689 | 34042 ft | 433 kts | 234° |
| 2026-05-04 10:12 | 16.57180 | -144.02488 | 34040 ft | 433 kts | 234° |
| 2026-05-04 10:12 | 16.53313 | -144.07255 | 34018 ft | 433 kts | 234° |
| 2026-05-04 10:13 | 16.49410 | -144.12064 | 34041 ft | 436 kts | 233° |
| 2026-05-04 10:13 | 16.45495 | -144.16883 | 34038 ft | 436 kts | 233° |
| 2026-05-04 10:14 | 16.41575 | -144.21703 | 34038 ft | 436 kts | 233° |
| 2026-05-04 10:16 | 16.25912 | -144.40937 | 34031 ft | 438 kts | 233° |
| 2026-05-04 10:16 | 16.21971 | -144.45767 | 34034 ft | 438 kts | 233° |
| 2026-05-04 10:17 | 16.18054 | -144.50564 | 34031 ft | 438 kts | 233° |
| 2026-05-04 10:19 | 16.02292 | -144.69843 | 34029 ft | 441 kts | 233° |
| 2026-05-04 10:19 | 15.98312 | -144.74702 | 34028 ft | 441 kts | 233° |
| 2026-05-04 10:20 | 15.94335 | -144.79553 | 34026 ft | 441 kts | 233° |
| 2026-05-04 10:20 | 15.90360 | -144.84400 | 34022 ft | 441 kts | 233° |
| 2026-05-04 10:21 | 15.86409 | -144.89213 | 34024 ft | 441 kts | 233° |
| 2026-05-04 10:21 | 15.82430 | -144.94060 | 34017 ft | 441 kts | 232° |
| 2026-05-04 10:22 | 15.76423 | -145.01369 | 34027 ft | 444 kts | 232° |
| 2026-05-04 10:23 | 15.72415 | -145.06240 | 34020 ft | 443 kts | 232° |
| 2026-05-04 10:25 | 15.56423 | -145.25649 | 34016 ft | 443 kts | 232° |
| 2026-05-04 10:25 | 15.52416 | -145.30503 | 34015 ft | 442 kts | 232° |
| 2026-05-04 10:26 | 15.48415 | -145.35347 | 34016 ft | 442 kts | 232° |
| 2026-05-04 10:26 | 15.44441 | -145.40156 | 34015 ft | 442 kts | 232° |
| 2026-05-04 10:27 | 15.40441 | -145.44994 | 34016 ft | 442 kts | 232° |
| 2026-05-04 10:27 | 15.36436 | -145.49834 | 34008 ft | 442 kts | 232° |
| 2026-05-04 10:28 | 15.32409 | -145.54699 | 34013 ft | 447 kts | 232° |
| 2026-05-04 10:28 | 15.28386 | -145.59554 | 34007 ft | 447 kts | 232° |
| 2026-05-04 10:29 | 15.24341 | -145.64432 | 34010 ft | 446 kts | 232° |
| 2026-05-04 10:29 | 15.20295 | -145.69308 | 34013 ft | 446 kts | 232° |
| 2026-05-04 10:30 | 15.16247 | -145.74185 | 34015 ft | 446 kts | 232° |
| 2026-05-04 10:30 | 15.12229 | -145.79022 | 34013 ft | 446 kts | 232° |
| 2026-05-04 10:31 | 15.08173 | -145.83904 | 34014 ft | 449 kts | 232° |
| 2026-05-04 10:32 | 14.93909 | -146.01038 | 34004 ft | 450 kts | 231° |
| 2026-05-04 10:33 | 14.89823 | -146.05940 | 34000 ft | 450 kts | 231° |
| 2026-05-04 10:33 | 14.85733 | -146.10846 | 33993 ft | 451 kts | 231° |
| 2026-05-04 10:34 | 14.81607 | -146.15788 | 34004 ft | 456 kts | 231° |
| 2026-05-04 10:34 | 14.77464 | -146.20748 | 34003 ft | 456 kts | 231° |
| 2026-05-04 10:35 | 14.73345 | -146.25676 | 33996 ft | 456 kts | 231° |
| 2026-05-04 10:35 | 14.69198 | -146.30635 | 34004 ft | 456 kts | 231° |
| 2026-05-04 10:36 | 14.65061 | -146.35579 | 33996 ft | 454 kts | 231° |
| 2026-05-04 10:36 | 14.60936 | -146.40506 | 33999 ft | 453 kts | 230° |
| 2026-05-04 10:37 | 14.56810 | -146.45433 | 33990 ft | 454 kts | 230° |
| 2026-05-04 10:37 | 14.52710 | -146.50322 | 33989 ft | 454 kts | 230° |
| 2026-05-04 10:39 | 14.38249 | -146.67546 | 33998 ft | 454 kts | 230° |
| 2026-05-04 10:40 | 14.34133 | -146.72443 | 33994 ft | 456 kts | 230° |
| 2026-05-04 10:40 | 14.29969 | -146.77394 | 33986 ft | 457 kts | 230° |
| 2026-05-04 10:41 | 14.25798 | -146.82348 | 33991 ft | 458 kts | 230° |
| 2026-05-04 10:41 | 14.21625 | -146.87302 | 33987 ft | 457 kts | 230° |
| 2026-05-04 10:42 | 14.17486 | -146.92213 | 33988 ft | 456 kts | 230° |
| 2026-05-04 10:42 | 14.13328 | -146.97144 | 33989 ft | 456 kts | 230° |
| 2026-05-04 10:43 | 14.09158 | -147.02087 | 33987 ft | 458 kts | 230° |
| 2026-05-04 10:45 | 13.92410 | -147.21905 | 33989 ft | 459 kts | 230° |
| 2026-05-04 10:45 | 13.88214 | -147.26863 | 33982 ft | 459 kts | 230° |
| 2026-05-04 10:46 | 13.84044 | -147.31787 | 33976 ft | 461 kts | 230° |
| 2026-05-04 10:46 | 13.79817 | -147.36776 | 33977 ft | 464 kts | 230° |
| 2026-05-04 10:47 | 13.75577 | -147.41777 | 33983 ft | 464 kts | 230° |
| 2026-05-04 10:47 | 13.71334 | -147.46778 | 33982 ft | 464 kts | 230° |
| 2026-05-04 10:49 | 13.54366 | -147.66751 | 33973 ft | 466 kts | 230° |
| 2026-05-04 10:50 | 13.50094 | -147.71770 | 33971 ft | 466 kts | 230° |
| 2026-05-04 10:52 | 13.33034 | -147.91790 | 33961 ft | 466 kts | 230° |
| 2026-05-04 10:52 | 13.28758 | -147.96802 | 33968 ft | 466 kts | 229° |
| 2026-05-04 10:54 | 13.11686 | -148.16776 | 33967 ft | 466 kts | 229° |
| 2026-05-04 10:56 | 12.94585 | -148.36741 | 33966 ft | 467 kts | 229° |
| 2026-05-04 10:57 | 12.90298 | -148.41739 | 33963 ft | 467 kts | 229° |
| 2026-05-04 10:57 | 12.86041 | -148.46699 | 33969 ft | 467 kts | 229° |
| 2026-05-04 10:58 | 12.81751 | -148.51694 | 33961 ft | 467 kts | 229° |
| 2026-05-04 10:58 | 12.77453 | -148.56698 | 33962 ft | 467 kts | 229° |
| 2026-05-04 10:59 | 12.73159 | -148.61692 | 33960 ft | 467 kts | 229° |
| 2026-05-04 10:59 | 12.68891 | -148.66653 | 33954 ft | 467 kts | 229° |
| 2026-05-04 11:00 | 12.64599 | -148.71639 | 33958 ft | 467 kts | 229° |
| 2026-05-04 11:02 | 12.47434 | -148.91556 | 33954 ft | 468 kts | 229° |
| 2026-05-04 11:05 | 12.15080 | -149.28979 | 33956 ft | 472 kts | 229° |
| 2026-05-04 11:06 | 12.10726 | -149.34004 | 33950 ft | 471 kts | 229° |
| 2026-05-04 11:06 | 12.06390 | -149.39006 | 33950 ft | 470 kts | 229° |
| 2026-05-04 11:10 | 11.76008 | -149.73975 | 33947 ft | 471 kts | 229° |
| 2026-05-04 11:12 | 11.58572 | -149.93987 | 33943 ft | 473 kts | 229° |
| 2026-05-04 11:12 | 11.54197 | -149.99002 | 33999 ft | 473 kts | 229° |
| 2026-05-04 11:13 | 11.52019 | -150.01499 | 34286 ft | 469 kts | 229° |
| 2026-05-04 11:13 | 11.49860 | -150.03973 | 34583 ft | 466 kts | 229° |
| 2026-05-04 11:13 | 11.47709 | -150.06433 | 34793 ft | 465 kts | 229° |
| 2026-05-04 11:13 | 11.45558 | -150.08890 | 34965 ft | 464 kts | 229° |
| 2026-05-04 11:14 | 11.43411 | -150.11344 | 35129 ft | 464 kts | 229° |
| 2026-05-04 11:14 | 11.41287 | -150.13771 | 35215 ft | 465 kts | 229° |
| 2026-05-04 11:14 | 11.39133 | -150.16233 | 35333 ft | 466 kts | 229° |
| 2026-05-04 11:16 | 11.24328 | -150.33136 | 35943 ft | 445 kts | 229° |
| 2026-05-04 11:16 | 11.20198 | -150.37847 | 35937 ft | 446 kts | 229° |
| 2026-05-04 11:17 | 11.16068 | -150.42557 | 35935 ft | 446 kts | 229° |
| 2026-05-04 11:19 | 10.99493 | -150.61432 | 35933 ft | 448 kts | 229° |
| 2026-05-04 11:19 | 10.95339 | -150.66157 | 35933 ft | 448 kts | 229° |
| 2026-05-04 11:20 | 10.91186 | -150.70879 | 35930 ft | 448 kts | 229° |
| 2026-05-04 11:20 | 10.87059 | -150.75569 | 35934 ft | 448 kts | 229° |
| 2026-05-04 11:22 | 10.70422 | -150.94454 | 35928 ft | 449 kts | 229° |
| 2026-05-04 11:23 | 10.66254 | -150.99181 | 35928 ft | 449 kts | 229° |
| 2026-05-04 11:25 | 10.51668 | -151.15704 | 35928 ft | 448 kts | 229° |
| 2026-05-04 11:25 | 10.47527 | -151.20391 | 35927 ft | 449 kts | 229° |
| 2026-05-04 11:27 | 10.28777 | -151.41583 | 35925 ft | 449 kts | 228° |
| 2026-05-04 11:28 | 10.24601 | -151.46298 | 35925 ft | 449 kts | 228° |
| 2026-05-04 11:28 | 10.20425 | -151.51010 | 35923 ft | 449 kts | 228° |
| 2026-05-04 11:29 | 10.16245 | -151.55726 | 35922 ft | 449 kts | 228° |
| 2026-05-04 11:29 | 10.12097 | -151.60402 | 35922 ft | 449 kts | 228° |
| 2026-05-04 11:33 | 9.82822 | -151.93356 | 35921 ft | 450 kts | 228° |
| 2026-05-04 11:33 | 9.78634 | -151.98063 | 35919 ft | 449 kts | 228° |
| 2026-05-04 11:34 | 9.74478 | -152.02731 | 35923 ft | 449 kts | 228° |
| 2026-05-04 11:34 | 9.70292 | -152.07432 | 35922 ft | 449 kts | 228° |
| 2026-05-04 11:35 | 9.66105 | -152.12132 | 35920 ft | 450 kts | 228° |
| 2026-05-04 11:35 | 9.61909 | -152.16840 | 35916 ft | 450 kts | 228° |
| 2026-05-04 11:36 | 9.57740 | -152.21516 | 35917 ft | 450 kts | 228° |
| 2026-05-04 11:36 | 9.53538 | -152.26226 | 35917 ft | 451 kts | 228° |
| 2026-05-04 11:37 | 9.49335 | -152.30937 | 35914 ft | 451 kts | 228° |
| 2026-05-04 11:37 | 9.45127 | -152.35651 | 35914 ft | 451 kts | 228° |
| 2026-05-04 11:38 | 9.40948 | -152.40330 | 35916 ft | 451 kts | 228° |
| 2026-05-04 11:38 | 9.36737 | -152.45043 | 35914 ft | 451 kts | 228° |
| 2026-05-04 11:39 | 9.32530 | -152.49750 | 35914 ft | 451 kts | 228° |
| 2026-05-04 11:41 | 9.17818 | -152.66198 | 35911 ft | 451 kts | 228° |
| 2026-05-04 11:41 | 9.13606 | -152.70903 | 35909 ft | 451 kts | 228° |
| 2026-05-04 11:42 | 9.09394 | -152.75606 | 35911 ft | 451 kts | 228° |
| 2026-05-04 11:42 | 9.05209 | -152.80276 | 35912 ft | 451 kts | 228° |
| 2026-05-04 11:43 | 9.00996 | -152.84977 | 35907 ft | 451 kts | 228° |
| 2026-05-04 11:43 | 8.96775 | -152.89684 | 35906 ft | 451 kts | 228° |
| 2026-05-04 11:44 | 8.92557 | -152.94387 | 35908 ft | 451 kts | 228° |
| 2026-05-04 11:44 | 8.88365 | -152.99059 | 35908 ft | 451 kts | 228° |
| 2026-05-04 11:45 | 8.84150 | -153.03755 | 35906 ft | 451 kts | 228° |
| 2026-05-04 11:45 | 8.79925 | -153.08460 | 35906 ft | 451 kts | 228° |
| 2026-05-04 11:46 | 8.75701 | -153.13162 | 35903 ft | 452 kts | 228° |
| 2026-05-04 11:46 | 8.71472 | -153.17867 | 35903 ft | 453 kts | 228° |
| 2026-05-04 11:47 | 8.67262 | -153.22551 | 35901 ft | 453 kts | 228° |
| 2026-05-04 11:47 | 8.63024 | -153.27265 | 35900 ft | 453 kts | 228° |
| 2026-05-04 11:48 | 8.58782 | -153.31980 | 35902 ft | 453 kts | 228° |
| 2026-05-04 11:48 | 8.54542 | -153.36691 | 35900 ft | 453 kts | 228° |
| 2026-05-04 11:49 | 8.50297 | -153.41406 | 35900 ft | 453 kts | 228° |
| 2026-05-04 11:49 | 8.46083 | -153.46085 | 35899 ft | 454 kts | 228° |
| 2026-05-04 11:50 | 8.41833 | -153.50804 | 35902 ft | 454 kts | 228° |
| 2026-05-04 11:50 | 8.37580 | -153.55523 | 35900 ft | 454 kts | 228° |
| 2026-05-04 11:51 | 8.33328 | -153.60240 | 35898 ft | 454 kts | 228° |
| 2026-05-04 11:51 | 8.29099 | -153.64929 | 35897 ft | 454 kts | 228° |
| 2026-05-04 11:52 | 8.24845 | -153.69644 | 35898 ft | 454 kts | 228° |
| 2026-05-04 11:52 | 8.20593 | -153.74357 | 35899 ft | 454 kts | 228° |
| 2026-05-04 11:53 | 8.16329 | -153.79079 | 35893 ft | 455 kts | 228° |
| 2026-05-04 11:53 | 8.12062 | -153.83807 | 35897 ft | 456 kts | 228° |
| 2026-05-04 11:55 | 7.94977 | -154.02680 | 35895 ft | 456 kts | 228° |
| 2026-05-04 11:56 | 7.90727 | -154.07372 | 35898 ft | 457 kts | 228° |
| 2026-05-04 11:56 | 7.86440 | -154.12104 | 35897 ft | 457 kts | 228° |
| 2026-05-04 11:57 | 7.82145 | -154.16843 | 35898 ft | 457 kts | 228° |
| 2026-05-04 11:57 | 7.77857 | -154.21573 | 35898 ft | 457 kts | 228° |
| 2026-05-04 11:58 | 7.73567 | -154.26303 | 35894 ft | 457 kts | 228° |
| 2026-05-04 11:58 | 7.69302 | -154.31003 | 35892 ft | 457 kts | 228° |
| 2026-05-04 11:59 | 7.65009 | -154.35734 | 35897 ft | 457 kts | 228° |
| 2026-05-04 11:59 | 7.60714 | -154.40465 | 35895 ft | 458 kts | 228° |
| 2026-05-04 12:00 | 7.56418 | -154.45196 | 35897 ft | 458 kts | 228° |
| 2026-05-04 12:00 | 7.52151 | -154.49893 | 35895 ft | 457 kts | 228° |
| 2026-05-04 12:01 | 7.47853 | -154.54624 | 35890 ft | 457 kts | 228° |
| 2026-05-04 12:02 | 7.32853 | -154.71119 | 35893 ft | 457 kts | 228° |
| 2026-05-04 12:03 | 7.28559 | -154.75838 | 35894 ft | 457 kts | 228° |
| 2026-05-04 12:03 | 7.24261 | -154.80560 | 35889 ft | 457 kts | 228° |
| 2026-05-04 12:04 | 7.19966 | -154.85277 | 35891 ft | 457 kts | 228° |
| 2026-05-04 12:04 | 7.15667 | -154.89997 | 35891 ft | 457 kts | 228° |
| 2026-05-04 12:05 | 7.11400 | -154.94680 | 35886 ft | 457 kts | 228° |
| 2026-05-04 12:05 | 7.07103 | -154.99395 | 35888 ft | 457 kts | 228° |
| 2026-05-04 12:06 | 7.02799 | -155.04116 | 35888 ft | 457 kts | 228° |
| 2026-05-04 12:06 | 6.98500 | -155.08831 | 35888 ft | 457 kts | 228° |
| 2026-05-04 12:07 | 6.94228 | -155.13514 | 35892 ft | 457 kts | 228° |
| 2026-05-04 12:07 | 6.89924 | -155.18232 | 35890 ft | 457 kts | 228° |
| 2026-05-04 12:08 | 6.85623 | -155.22944 | 35892 ft | 457 kts | 228° |
| 2026-05-04 12:08 | 6.81317 | -155.27660 | 35887 ft | 457 kts | 228° |
| 2026-05-04 12:09 | 6.77011 | -155.32375 | 35889 ft | 458 kts | 228° |
| 2026-05-04 12:09 | 6.72731 | -155.37062 | 35888 ft | 458 kts | 228° |
| 2026-05-04 12:10 | 6.68419 | -155.41780 | 35888 ft | 458 kts | 228° |
| 2026-05-04 12:10 | 6.64106 | -155.46499 | 35889 ft | 458 kts | 228° |
| 2026-05-04 12:11 | 6.59795 | -155.51215 | 35883 ft | 458 kts | 228° |
| 2026-05-04 12:11 | 6.55506 | -155.55905 | 35887 ft | 458 kts | 228° |
| 2026-05-04 12:12 | 6.51190 | -155.60623 | 35887 ft | 458 kts | 228° |
| 2026-05-04 12:12 | 6.46870 | -155.65344 | 35889 ft | 459 kts | 228° |
| 2026-05-04 12:14 | 6.29612 | -155.84194 | 35885 ft | 459 kts | 228° |
| 2026-05-04 12:15 | 6.25287 | -155.88914 | 35886 ft | 459 kts | 228° |
| 2026-05-04 12:15 | 6.20966 | -155.93630 | 35890 ft | 459 kts | 227° |
| 2026-05-04 12:16 | 6.16667 | -155.98319 | 35884 ft | 459 kts | 227° |
| 2026-05-04 12:16 | 6.12337 | -156.03041 | 35889 ft | 460 kts | 227° |
| 2026-05-04 12:17 | 6.08004 | -156.07766 | 35885 ft | 460 kts | 227° |
| 2026-05-04 12:17 | 6.03672 | -156.12487 | 35885 ft | 460 kts | 227° |
| 2026-05-04 12:18 | 6.00069 | -156.16413 | 35885 ft | 460 kts | 227° |
| 2026-05-04 12:18 | 5.95036 | -156.21898 | 35882 ft | 459 kts | 227° |
| 2026-05-04 12:19 | 5.90703 | -156.26617 | 35881 ft | 460 kts | 227° |
| 2026-05-04 12:19 | 5.87099 | -156.30542 | 35882 ft | 460 kts | 227° |
| 2026-05-04 12:20 | 5.82761 | -156.35265 | 35881 ft | 460 kts | 227° |
| 2026-05-04 12:20 | 5.77723 | -156.40749 | 35882 ft | 460 kts | 227° |
| 2026-05-04 12:21 | 5.74089 | -156.44703 | 35882 ft | 460 kts | 227° |
| 2026-05-04 12:21 | 5.69778 | -156.49393 | 35879 ft | 460 kts | 227° |
| 2026-05-04 12:22 | 5.65443 | -156.54108 | 35879 ft | 460 kts | 227° |
| 2026-05-04 12:22 | 5.61105 | -156.58825 | 35874 ft | 460 kts | 227° |
| 2026-05-04 12:23 | 5.56764 | -156.63545 | 35882 ft | 460 kts | 227° |
| 2026-05-04 12:23 | 5.52453 | -156.68231 | 35879 ft | 460 kts | 227° |
| 2026-05-04 12:24 | 5.48109 | -156.72950 | 35882 ft | 460 kts | 227° |
| 2026-05-04 12:24 | 5.43767 | -156.77668 | 35882 ft | 460 kts | 227° |
| 2026-05-04 12:25 | 5.39420 | -156.82390 | 35882 ft | 460 kts | 227° |
| 2026-05-04 12:25 | 5.35103 | -156.87077 | 35882 ft | 460 kts | 227° |
| 2026-05-04 12:26 | 5.30762 | -156.91791 | 35881 ft | 460 kts | 227° |
| 2026-05-04 12:26 | 5.26416 | -156.96508 | 35879 ft | 460 kts | 227° |
| 2026-05-04 12:27 | 5.22065 | -157.01230 | 35882 ft | 460 kts | 227° |
| 2026-05-04 12:27 | 5.17720 | -157.05943 | 35885 ft | 460 kts | 227° |
| 2026-05-04 12:28 | 5.13401 | -157.10628 | 35882 ft | 460 kts | 227° |
| 2026-05-04 12:28 | 5.09055 | -157.15342 | 35882 ft | 460 kts | 227° |
| 2026-05-04 12:29 | 5.04707 | -157.20056 | 35882 ft | 460 kts | 227° |
| 2026-05-04 12:29 | 5.00359 | -157.24770 | 35879 ft | 460 kts | 227° |
| 2026-05-04 12:30 | 4.96044 | -157.29454 | 35884 ft | 460 kts | 227° |
| 2026-05-04 12:30 | 4.91695 | -157.34174 | 35881 ft | 460 kts | 227° |
| 2026-05-04 12:31 | 4.87349 | -157.38889 | 35883 ft | 460 kts | 227° |
| 2026-05-04 12:31 | 4.83012 | -157.43594 | 35881 ft | 460 kts | 227° |
| 2026-05-04 12:32 | 4.76530 | -157.50625 | 35882 ft | 460 kts | 227° |
| 2026-05-04 12:33 | 4.72188 | -157.55334 | 35883 ft | 460 kts | 227° |
| 2026-05-04 12:33 | 4.67844 | -157.60043 | 35882 ft | 460 kts | 227° |
| 2026-05-04 12:34 | 4.63498 | -157.64754 | 35882 ft | 460 kts | 227° |
| 2026-05-04 12:34 | 4.59180 | -157.69434 | 35880 ft | 460 kts | 227° |
| 2026-05-04 12:35 | 4.54831 | -157.74146 | 35882 ft | 461 kts | 227° |
| 2026-05-04 12:35 | 4.50478 | -157.78862 | 35881 ft | 461 kts | 227° |
| 2026-05-04 12:36 | 4.46120 | -157.83582 | 35881 ft | 461 kts | 227° |
| 2026-05-04 12:36 | 4.41794 | -157.88266 | 35882 ft | 461 kts | 227° |
| 2026-05-04 12:37 | 4.37437 | -157.92983 | 35880 ft | 461 kts | 227° |
| 2026-05-04 12:37 | 4.33080 | -157.97700 | 35879 ft | 461 kts | 227° |
| 2026-05-04 12:38 | 4.28724 | -158.02415 | 35879 ft | 461 kts | 227° |
| 2026-05-04 12:38 | 4.24368 | -158.07129 | 35878 ft | 461 kts | 227° |
| 2026-05-04 12:39 | 4.20032 | -158.11820 | 35881 ft | 462 kts | 227° |
| 2026-05-04 12:39 | 4.15669 | -158.16540 | 35881 ft | 462 kts | 227° |
| 2026-05-04 12:40 | 4.11302 | -158.21263 | 35882 ft | 462 kts | 227° |
| 2026-05-04 12:40 | 4.06935 | -158.25985 | 35881 ft | 462 kts | 227° |
| 2026-05-04 12:41 | 4.02564 | -158.30711 | 35879 ft | 462 kts | 227° |
| 2026-05-04 12:41 | 3.98218 | -158.35409 | 35881 ft | 462 kts | 227° |
| 2026-05-04 12:42 | 3.93847 | -158.40133 | 35882 ft | 462 kts | 227° |
| 2026-05-04 12:42 | 3.89474 | -158.44859 | 35881 ft | 462 kts | 227° |
| 2026-05-04 12:43 | 3.85105 | -158.49579 | 35882 ft | 462 kts | 227° |
| 2026-05-04 12:43 | 3.80763 | -158.54270 | 35882 ft | 463 kts | 227° |
| 2026-05-04 12:44 | 3.76381 | -158.59002 | 35880 ft | 463 kts | 227° |
| 2026-05-04 12:44 | 3.72003 | -158.63731 | 35881 ft | 463 kts | 227° |
| 2026-05-04 12:45 | 3.67622 | -158.68461 | 35881 ft | 463 kts | 227° |
| 2026-05-04 12:45 | 3.63268 | -158.73162 | 35879 ft | 463 kts | 227° |
| 2026-05-04 12:46 | 3.58885 | -158.77893 | 35878 ft | 463 kts | 227° |
| 2026-05-04 12:46 | 3.54503 | -158.82623 | 35876 ft | 463 kts | 227° |
| 2026-05-04 12:47 | 3.50127 | -158.87344 | 35883 ft | 462 kts | 227° |
| 2026-05-04 12:47 | 3.45775 | -158.92041 | 35881 ft | 464 kts | 227° |
| 2026-05-04 12:48 | 3.41385 | -158.96777 | 35881 ft | 464 kts | 227° |
| 2026-05-04 12:48 | 3.36996 | -159.01510 | 35881 ft | 464 kts | 227° |
| 2026-05-04 12:49 | 3.32606 | -159.06245 | 35881 ft | 464 kts | 227° |
| 2026-05-04 12:49 | 3.28244 | -159.10949 | 35881 ft | 464 kts | 227° |
| 2026-05-04 12:50 | 3.23855 | -159.15681 | 35881 ft | 464 kts | 227° |
| 2026-05-04 12:50 | 3.19462 | -159.20416 | 35881 ft | 463 kts | 227° |
| 2026-05-04 12:51 | 3.15090 | -159.25130 | 35881 ft | 462 kts | 227° |
| 2026-05-04 12:51 | 3.10718 | -159.29841 | 35884 ft | 461 kts | 227° |
| 2026-05-04 12:52 | 3.06381 | -159.34515 | 35881 ft | 461 kts | 227° |
| 2026-05-04 12:52 | 3.02014 | -159.39220 | 35881 ft | 462 kts | 227° |
| 2026-05-04 12:53 | 2.97646 | -159.43927 | 35880 ft | 462 kts | 227° |
| 2026-05-04 12:53 | 2.93275 | -159.48635 | 35881 ft | 462 kts | 227° |
| 2026-05-04 12:54 | 2.88930 | -159.53314 | 35887 ft | 462 kts | 227° |
| 2026-05-04 12:54 | 2.84552 | -159.58029 | 35881 ft | 463 kts | 227° |
| 2026-05-04 12:55 | 2.80167 | -159.62751 | 35888 ft | 463 kts | 227° |
| 2026-05-04 12:55 | 2.75776 | -159.67479 | 35887 ft | 464 kts | 227° |
| 2026-05-04 12:56 | 2.71405 | -159.72185 | 35882 ft | 465 kts | 227° |
| 2026-05-04 12:56 | 2.66996 | -159.76930 | 35881 ft | 466 kts | 227° |
| 2026-05-04 12:57 | 2.62576 | -159.81688 | 35882 ft | 467 kts | 227° |
| 2026-05-04 12:57 | 2.58152 | -159.86449 | 35889 ft | 468 kts | 227° |
| 2026-05-04 12:58 | 2.53722 | -159.91217 | 35881 ft | 468 kts | 227° |
| 2026-05-04 12:58 | 2.49311 | -159.95962 | 35881 ft | 469 kts | 227° |
| 2026-05-04 12:59 | 2.44870 | -160.00739 | 35885 ft | 469 kts | 227° |
| 2026-05-04 12:59 | 2.40423 | -160.05523 | 35883 ft | 470 kts | 227° |
| 2026-05-04 13:00 | 2.35971 | -160.10312 | 35885 ft | 471 kts | 227° |
| 2026-05-04 13:00 | 2.31539 | -160.15078 | 35883 ft | 471 kts | 227° |
| 2026-05-04 13:01 | 2.27071 | -160.19884 | 35882 ft | 472 kts | 227° |
| 2026-05-04 13:01 | 2.22594 | -160.24698 | 35882 ft | 473 kts | 227° |
| 2026-05-04 13:02 | 2.18114 | -160.29514 | 35884 ft | 474 kts | 227° |
| 2026-05-04 13:02 | 2.13654 | -160.34309 | 35889 ft | 474 kts | 227° |
| 2026-05-04 13:03 | 2.09159 | -160.39142 | 35888 ft | 475 kts | 227° |
| 2026-05-04 13:03 | 2.04653 | -160.43985 | 35887 ft | 476 kts | 227° |
| 2026-05-04 13:04 | 2.00139 | -160.48837 | 35890 ft | 477 kts | 227° |
| 2026-05-04 13:04 | 1.95618 | -160.53696 | 35886 ft | 478 kts | 227° |
| 2026-05-04 13:05 | 1.91116 | -160.58533 | 35887 ft | 480 kts | 227° |
| 2026-05-04 13:05 | 1.86566 | -160.63423 | 35887 ft | 481 kts | 227° |
| 2026-05-04 13:06 | 1.82006 | -160.68322 | 35884 ft | 482 kts | 227° |
| 2026-05-04 13:06 | 1.77437 | -160.73231 | 35887 ft | 482 kts | 227° |
| 2026-05-04 13:07 | 1.72894 | -160.78112 | 35884 ft | 483 kts | 227° |
| 2026-05-04 13:07 | 1.68319 | -160.83026 | 35885 ft | 483 kts | 227° |
| 2026-05-04 13:08 | 1.63745 | -160.87938 | 35888 ft | 483 kts | 227° |
| 2026-05-04 13:08 | 1.59198 | -160.92823 | 35887 ft | 483 kts | 227° |
| 2026-05-04 13:09 | 1.54618 | -160.97741 | 35884 ft | 484 kts | 227° |
| 2026-05-04 13:09 | 1.50033 | -161.02665 | 35884 ft | 484 kts | 227° |
| 2026-05-04 13:10 | 1.45452 | -161.07584 | 35885 ft | 484 kts | 227° |
| 2026-05-04 13:10 | 1.40876 | -161.12497 | 35884 ft | 482 kts | 227° |
| 2026-05-04 13:11 | 1.36316 | -161.17393 | 35883 ft | 481 kts | 227° |
| 2026-05-04 13:11 | 1.31792 | -161.22251 | 35882 ft | 481 kts | 227° |
| 2026-05-04 13:12 | 1.27235 | -161.27143 | 35882 ft | 481 kts | 227° |
| 2026-05-04 13:12 | 1.22684 | -161.32028 | 35877 ft | 481 kts | 227° |
| 2026-05-04 13:13 | 1.18124 | -161.36924 | 35879 ft | 481 kts | 227° |
| 2026-05-04 13:13 | 1.13601 | -161.41779 | 35879 ft | 481 kts | 227° |
| 2026-05-04 13:14 | 1.09045 | -161.46669 | 35878 ft | 481 kts | 227° |
| 2026-05-04 13:14 | 1.04504 | -161.51541 | 35878 ft | 477 kts | 227° |
| 2026-05-04 13:15 | 0.99989 | -161.56387 | 35883 ft | 476 kts | 227° |
| 2026-05-04 13:15 | 0.95480 | -161.61227 | 35874 ft | 476 kts | 227° |
| 2026-05-04 13:16 | 0.90994 | -161.66042 | 35880 ft | 477 kts | 227° |
| 2026-05-04 13:16 | 0.86478 | -161.70888 | 35879 ft | 476 kts | 227° |
| 2026-05-04 13:17 | 0.81962 | -161.75734 | 35879 ft | 476 kts | 227° |
| 2026-05-04 13:17 | 0.77445 | -161.80580 | 35879 ft | 476 kts | 227° |
| 2026-05-04 13:18 | 0.72957 | -161.85396 | 35877 ft | 476 kts | 227° |
| 2026-05-04 13:18 | 0.68448 | -161.90234 | 35879 ft | 475 kts | 228° |
| 2026-05-04 13:19 | 0.63943 | -161.95068 | 35878 ft | 475 kts | 228° |
| 2026-05-04 13:19 | 0.59441 | -161.99898 | 35871 ft | 475 kts | 228° |
| 2026-05-04 13:20 | 0.54934 | -162.04733 | 35879 ft | 475 kts | 228° |
| 2026-05-04 13:20 | 0.50461 | -162.09532 | 35879 ft | 475 kts | 228° |
| 2026-05-04 13:21 | 0.45953 | -162.14369 | 35878 ft | 475 kts | 228° |
| 2026-05-04 13:21 | 0.41447 | -162.19202 | 35879 ft | 475 kts | 228° |
| 2026-05-04 13:22 | 0.36940 | -162.24037 | 35879 ft | 475 kts | 228° |
| 2026-05-04 13:22 | 0.32464 | -162.28839 | 35879 ft | 476 kts | 228° |
| 2026-05-04 13:23 | 0.27953 | -162.33678 | 35877 ft | 476 kts | 228° |
| 2026-05-04 13:23 | 0.23447 | -162.38512 | 35879 ft | 476 kts | 228° |
| 2026-05-04 13:24 | 0.18932 | -162.43355 | 35876 ft | 476 kts | 228° |
| 2026-05-04 13:24 | 0.14419 | -162.48196 | 35876 ft | 476 kts | 228° |
| 2026-05-04 13:25 | 0.07684 | -162.55421 | 35876 ft | 476 kts | 228° |
| 2026-05-04 13:25 | 0.03174 | -162.60259 | 35871 ft | 476 kts | 228° |
| 2026-05-04 13:26 | -0.01341 | -162.65103 | 35874 ft | 476 kts | 227° |
| 2026-05-04 13:26 | -0.05859 | -162.69948 | 35876 ft | 477 kts | 227° |
| 2026-05-04 13:27 | -0.10345 | -162.74760 | 35874 ft | 477 kts | 227° |
| 2026-05-04 13:27 | -0.14863 | -162.79606 | 35878 ft | 476 kts | 227° |
| 2026-05-04 13:28 | -0.19381 | -162.84453 | 35871 ft | 477 kts | 227° |
| 2026-05-04 13:28 | -0.23899 | -162.89300 | 35872 ft | 476 kts | 227° |
| 2026-05-04 13:29 | -0.28418 | -162.94147 | 35874 ft | 477 kts | 227° |
| 2026-05-04 13:29 | -0.32901 | -162.98956 | 35873 ft | 476 kts | 227° |
| 2026-05-04 13:30 | -0.37418 | -163.03803 | 35873 ft | 476 kts | 227° |
| 2026-05-04 13:30 | -0.41942 | -163.08656 | 35871 ft | 477 kts | 227° |
| 2026-05-04 13:31 | -0.46468 | -163.13512 | 35875 ft | 477 kts | 227° |
| 2026-05-04 13:31 | -0.50963 | -163.18333 | 35870 ft | 477 kts | 227° |
| 2026-05-04 13:32 | -0.55489 | -163.23189 | 35871 ft | 477 kts | 227° |
| 2026-05-04 13:32 | -0.60014 | -163.28044 | 35872 ft | 477 kts | 227° |
| 2026-05-04 13:33 | -0.64541 | -163.32900 | 35872 ft | 478 kts | 227° |
| 2026-05-04 13:33 | -0.69070 | -163.37759 | 35872 ft | 478 kts | 227° |
| 2026-05-04 13:34 | -0.73565 | -163.42583 | 35867 ft | 478 kts | 227° |
| 2026-05-04 13:34 | -0.78092 | -163.47440 | 35872 ft | 477 kts | 227° |
| 2026-05-04 13:35 | -0.84870 | -163.54714 | 35869 ft | 477 kts | 227° |
| 2026-05-04 13:36 | -0.89390 | -163.59564 | 35870 ft | 477 kts | 227° |
| 2026-05-04 13:36 | -0.93881 | -163.64384 | 35872 ft | 477 kts | 227° |
| 2026-05-04 13:37 | -0.98403 | -163.69236 | 35873 ft | 477 kts | 227° |
| 2026-05-04 13:37 | -1.02923 | -163.74087 | 35873 ft | 477 kts | 227° |
| 2026-05-04 13:38 | -1.07442 | -163.78937 | 35872 ft | 477 kts | 227° |
| 2026-05-04 13:38 | -1.11931 | -163.83756 | 35874 ft | 477 kts | 227° |
| 2026-05-04 13:39 | -1.16450 | -163.88606 | 35869 ft | 477 kts | 227° |
| 2026-05-04 13:39 | -1.20967 | -163.93456 | 35873 ft | 477 kts | 227° |
| 2026-05-04 13:40 | -1.25485 | -163.98306 | 35872 ft | 477 kts | 227° |
| 2026-05-04 13:40 | -1.29975 | -164.03128 | 35872 ft | 477 kts | 227° |
| 2026-05-04 13:41 | -1.34502 | -164.07984 | 35874 ft | 477 kts | 227° |
| 2026-05-04 13:41 | -1.39025 | -164.12836 | 35872 ft | 477 kts | 227° |
| 2026-05-04 13:42 | -1.45818 | -164.20126 | 35872 ft | 477 kts | 227° |
| 2026-05-04 13:42 | -1.50311 | -164.24949 | 35875 ft | 478 kts | 227° |
| 2026-05-04 13:43 | -1.54844 | -164.29814 | 35876 ft | 478 kts | 227° |
| 2026-05-04 13:43 | -1.59378 | -164.34682 | 35874 ft | 478 kts | 227° |
| 2026-05-04 13:44 | -1.63914 | -164.39552 | 35873 ft | 479 kts | 227° |
| 2026-05-04 13:44 | -1.68452 | -164.44424 | 35875 ft | 479 kts | 227° |
| 2026-05-04 13:45 | -1.72959 | -164.49263 | 35873 ft | 479 kts | 227° |
| 2026-05-04 13:45 | -1.77502 | -164.54141 | 35871 ft | 479 kts | 227° |
| 2026-05-04 13:46 | -1.82038 | -164.59012 | 35872 ft | 479 kts | 227° |
| 2026-05-04 13:46 | -1.86579 | -164.63888 | 35870 ft | 479 kts | 227° |
| 2026-05-04 13:47 | -1.91114 | -164.68760 | 35866 ft | 478 kts | 227° |
| 2026-05-04 13:47 | -1.95619 | -164.73599 | 35868 ft | 479 kts | 227° |
| 2026-05-04 13:48 | -2.00151 | -164.78468 | 35868 ft | 478 kts | 227° |
| 2026-05-04 13:48 | -2.04684 | -164.83338 | 35868 ft | 478 kts | 227° |
| 2026-05-04 13:49 | -2.09219 | -164.88210 | 35869 ft | 478 kts | 227° |
| 2026-05-04 13:49 | -2.13721 | -164.93047 | 35870 ft | 478 kts | 227° |
| 2026-05-04 13:50 | -2.18254 | -164.97918 | 35871 ft | 478 kts | 227° |
| 2026-05-04 13:50 | -2.22784 | -165.02787 | 35870 ft | 478 kts | 227° |
| 2026-05-04 13:51 | -2.27317 | -165.07659 | 35868 ft | 478 kts | 227° |
| 2026-05-04 13:51 | -2.31850 | -165.12532 | 35870 ft | 478 kts | 227° |